sensor_id;sensor_type;location;lat;lon;timestamp;P1;durP1;ratioP1;P2;durP2;ratioP2
21128;SDS011;10722;51.910;8.352;2024-03-23T00:54:38;29.90;;;7.17;;
21128;SDS011;10722;51.910;8.352;2024-03-23T00:57:22;31.13;;;7.40;;
21128;SDS011;10722;51.910;8.352;2024-03-23T01:00:06;29.77;;;6.83;;
21128;SDS011;10722;51.910;8.352;2024-03-23T01:02:50;22.73;;;6.63;;
21128;SDS011;10722;51.910;8.352;2024-03-23T01:05:34;29.73;;;6.83;;
21128;SDS011;10722;51.910;8.352;2024-03-23T01:08:18;28.53;;;6.63;;
21128;SDS011;10722;51.910;8.352;2024-03-23T01:11:02;28.63;;;5.70;;
21128;SDS011;10722;51.910;8.352;2024-03-23T01:13:47;23.73;;;5.70;;
21128;SDS011;10722;51.910;8.352;2024-03-23T01:16:31;24.10;;;5.37;;
21128;SDS011;10722;51.910;8.352;2024-03-23T01:19:15;24.70;;;5.20;;
21128;SDS011;10722;51.910;8.352;2024-03-23T01:21:59;29.93;;;5.53;;
21128;SDS011;10722;51.910;8.352;2024-03-23T01:24:44;29.80;;;5.73;;
21128;SDS011;10722;51.910;8.352;2024-03-23T01:27:28;24.43;;;5.17;;
21128;SDS011;10722;51.910;8.352;2024-03-23T01:30:13;29.67;;;6.53;;
21128;SDS011;10722;51.910;8.352;2024-03-23T01:32:57;34.40;;;6.87;;
21128;SDS011;10722;51.910;8.352;2024-03-23T01:35:41;24.43;;;6.10;;
21128;SDS011;10722;51.910;8.352;2024-03-23T01:38:26;33.13;;;7.60;;
21128;SDS011;10722;51.910;8.352;2024-03-23T01:41:10;32.20;;;6.43;;
21128;SDS011;10722;51.910;8.352;2024-03-23T01:43:54;29.57;;;7.23;;
21128;SDS011;10722;51.910;8.352;2024-03-23T01:46:39;24.97;;;6.40;;
21128;SDS011;10722;51.910;8.352;2024-03-23T01:49:23;27.13;;;6.77;;
21128;SDS011;10722;51.910;8.352;2024-03-23T01:52:08;31.53;;;8.07;;
21128;SDS011;10722;51.910;8.352;2024-03-23T01:54:53;37.43;;;7.73;;
21128;SDS011;10722;51.910;8.352;2024-03-23T01:57:38;32.03;;;7.73;;
21128;SDS011;10722;51.910;8.352;2024-03-23T02:00:21;34.60;;;8.57;;
21128;SDS011;10722;51.910;8.352;2024-03-23T02:03:22;31.87;;;7.43;;
21128;SDS011;10722;51.910;8.352;2024-03-23T02:06:09;34.87;;;7.47;;
21128;SDS011;10722;51.910;8.352;2024-03-23T02:08:53;28.87;;;7.33;;
21128;SDS011;10722;51.910;8.352;2024-03-23T02:11:38;35.37;;;7.37;;
21128;SDS011;10722;51.910;8.352;2024-03-23T02:14:22;26.43;;;6.80;;
21128;SDS011;10722;51.910;8.352;2024-03-23T02:17:06;24.23;;;6.20;;
21128;SDS011;10722;51.910;8.352;2024-03-23T02:19:50;27.07;;;6.90;;
21128;SDS011;10722;51.910;8.352;2024-03-23T02:22:35;27.43;;;6.37;;
21128;SDS011;10722;51.910;8.352;2024-03-23T02:25:20;27.07;;;6.10;;
21128;SDS011;10722;51.910;8.352;2024-03-23T02:28:04;24.30;;;5.90;;
21128;SDS011;10722;51.910;8.352;2024-03-23T02:30:49;33.80;;;6.70;;
21128;SDS011;10722;51.910;8.352;2024-03-23T02:33:34;26.20;;;6.10;;
21128;SDS011;10722;51.910;8.352;2024-03-23T02:36:18;33.63;;;6.53;;
21128;SDS011;10722;51.910;8.352;2024-03-23T02:39:02;26.50;;;6.27;;
21128;SDS011;10722;51.910;8.352;2024-03-23T02:41:46;20.97;;;5.60;;
21128;SDS011;10722;51.910;8.352;2024-03-23T02:44:30;21.03;;;5.90;;
21128;SDS011;10722;51.910;8.352;2024-03-23T02:47:14;24.33;;;6.07;;
21128;SDS011;10722;51.910;8.352;2024-03-23T02:49:58;29.33;;;6.60;;
21128;SDS011;10722;51.910;8.352;2024-03-23T02:52:42;24.60;;;6.23;;
21128;SDS011;10722;51.910;8.352;2024-03-23T02:55:26;23.73;;;5.70;;
21128;SDS011;10722;51.910;8.352;2024-03-23T02:58:10;23.03;;;5.27;;
21128;SDS011;10722;51.910;8.352;2024-03-23T03:00:55;23.30;;;5.67;;
21128;SDS011;10722;51.910;8.352;2024-03-23T03:03:39;22.00;;;4.67;;
21128;SDS011;10722;51.910;8.352;2024-03-23T03:06:26;20.03;;;4.57;;
21128;SDS011;10722;51.910;8.352;2024-03-23T03:09:11;16.43;;;4.07;;
21128;SDS011;10722;51.910;8.352;2024-03-23T03:11:55;21.10;;;4.77;;
21128;SDS011;10722;51.910;8.352;2024-03-23T03:14:40;20.23;;;4.97;;
21128;SDS011;10722;51.910;8.352;2024-03-23T03:17:24;19.23;;;4.90;;
21128;SDS011;10722;51.910;8.352;2024-03-23T03:20:08;21.20;;;5.00;;
21128;SDS011;10722;51.910;8.352;2024-03-23T03:22:53;28.17;;;5.00;;
21128;SDS011;10722;51.910;8.352;2024-03-23T03:25:37;19.67;;;4.50;;
21128;SDS011;10722;51.910;8.352;2024-03-23T03:28:21;17.93;;;4.10;;
21128;SDS011;10722;51.910;8.352;2024-03-23T03:31:05;18.67;;;4.50;;
21128;SDS011;10722;51.910;8.352;2024-03-23T03:33:49;23.70;;;5.07;;
21128;SDS011;10722;51.910;8.352;2024-03-23T03:36:34;20.57;;;4.57;;
21128;SDS011;10722;51.910;8.352;2024-03-23T03:39:18;17.77;;;4.40;;
21128;SDS011;10722;51.910;8.352;2024-03-23T03:42:02;19.47;;;4.60;;
21128;SDS011;10722;51.910;8.352;2024-03-23T03:44:47;17.00;;;4.20;;
21128;SDS011;10722;51.910;8.352;2024-03-23T03:47:31;22.47;;;3.97;;
21128;SDS011;10722;51.910;8.352;2024-03-23T03:50:16;18.30;;;4.13;;
21128;SDS011;10722;51.910;8.352;2024-03-23T03:53:01;17.57;;;4.17;;
21128;SDS011;10722;51.910;8.352;2024-03-23T03:55:46;18.17;;;4.03;;
21128;SDS011;10722;51.910;8.352;2024-03-23T03:58:30;17.90;;;4.43;;
21128;SDS011;10722;51.910;8.352;2024-03-23T04:01:14;18.37;;;4.30;;
21128;SDS011;10722;51.910;8.352;2024-03-23T04:03:59;18.47;;;4.00;;
21128;SDS011;10722;51.910;8.352;2024-03-23T04:06:43;20.23;;;4.97;;
21128;SDS011;10722;51.910;8.352;2024-03-23T04:09:28;19.97;;;4.80;;
21128;SDS011;10722;51.910;8.352;2024-03-23T04:12:12;17.53;;;4.17;;
21128;SDS011;10722;51.910;8.352;2024-03-23T04:14:56;19.47;;;4.33;;
21128;SDS011;10722;51.910;8.352;2024-03-23T04:17:40;19.43;;;5.07;;
21128;SDS011;10722;51.910;8.352;2024-03-23T04:20:24;24.17;;;5.50;;
21128;SDS011;10722;51.910;8.352;2024-03-23T04:23:09;19.03;;;4.43;;
21128;SDS011;10722;51.910;8.352;2024-03-23T04:25:53;25.10;;;4.90;;
21128;SDS011;10722;51.910;8.352;2024-03-23T04:28:37;16.60;;;4.70;;
21128;SDS011;10722;51.910;8.352;2024-03-23T04:31:21;19.43;;;4.93;;
21128;SDS011;10722;51.910;8.352;2024-03-23T04:34:05;28.30;;;5.20;;
21128;SDS011;10722;51.910;8.352;2024-03-23T04:36:49;21.20;;;5.10;;
21128;SDS011;10722;51.910;8.352;2024-03-23T04:39:33;24.97;;;5.30;;
21128;SDS011;10722;51.910;8.352;2024-03-23T04:42:17;24.20;;;5.27;;
21128;SDS011;10722;51.910;8.352;2024-03-23T04:45:02;20.70;;;5.23;;
21128;SDS011;10722;51.910;8.352;2024-03-23T04:47:47;22.60;;;5.67;;
21128;SDS011;10722;51.910;8.352;2024-03-23T04:50:31;21.73;;;5.33;;
21128;SDS011;10722;51.910;8.352;2024-03-23T04:53:15;22.37;;;5.40;;
21128;SDS011;10722;51.910;8.352;2024-03-23T04:56:00;17.67;;;4.30;;
21128;SDS011;10722;51.910;8.352;2024-03-23T04:58:44;24.87;;;5.27;;
21128;SDS011;10722;51.910;8.352;2024-03-23T05:01:28;19.63;;;4.77;;
21128;SDS011;10722;51.910;8.352;2024-03-23T05:04:12;21.33;;;5.73;;
21128;SDS011;10722;51.910;8.352;2024-03-23T05:06:56;18.57;;;4.37;;
21128;SDS011;10722;51.910;8.352;2024-03-23T05:09:40;20.43;;;4.27;;
21128;SDS011;10722;51.910;8.352;2024-03-23T05:12:24;21.87;;;4.20;;
21128;SDS011;10722;51.910;8.352;2024-03-23T05:15:08;23.83;;;4.53;;
21128;SDS011;10722;51.910;8.352;2024-03-23T05:17:53;21.23;;;4.70;;
21128;SDS011;10722;51.910;8.352;2024-03-23T05:20:37;22.40;;;4.77;;
21128;SDS011;10722;51.910;8.352;2024-03-23T05:23:21;18.87;;;4.10;;
21128;SDS011;10722;51.910;8.352;2024-03-23T05:26:05;18.70;;;4.20;;
21128;SDS011;10722;51.910;8.352;2024-03-23T05:28:49;18.33;;;4.00;;
21128;SDS011;10722;51.910;8.352;2024-03-23T05:31:33;21.67;;;4.20;;
21128;SDS011;10722;51.910;8.352;2024-03-23T05:34:18;22.70;;;4.50;;
21128;SDS011;10722;51.910;8.352;2024-03-23T05:37:02;21.23;;;4.63;;
21128;SDS011;10722;51.910;8.352;2024-03-23T05:39:46;21.33;;;4.50;;
21128;SDS011;10722;51.910;8.352;2024-03-23T05:42:31;21.80;;;4.30;;
21128;SDS011;10722;51.910;8.352;2024-03-23T05:45:15;24.03;;;4.70;;
21128;SDS011;10722;51.910;8.352;2024-03-23T05:47:59;25.37;;;4.90;;
21128;SDS011;10722;51.910;8.352;2024-03-23T05:50:44;19.97;;;4.30;;
21128;SDS011;10722;51.910;8.352;2024-03-23T05:53:28;29.40;;;5.23;;
21128;SDS011;10722;51.910;8.352;2024-03-23T05:56:13;23.97;;;5.10;;
21128;SDS011;10722;51.910;8.352;2024-03-23T05:58:57;24.33;;;4.97;;
21128;SDS011;10722;51.910;8.352;2024-03-23T06:01:41;22.67;;;4.63;;
21128;SDS011;10722;51.910;8.352;2024-03-23T06:04:25;25.47;;;4.90;;
21128;SDS011;10722;51.910;8.352;2024-03-23T06:07:10;19.50;;;4.70;;
21128;SDS011;10722;51.910;8.352;2024-03-23T06:09:55;23.87;;;5.40;;
21128;SDS011;10722;51.910;8.352;2024-03-23T06:12:39;30.70;;;5.80;;
21128;SDS011;10722;51.910;8.352;2024-03-23T06:15:24;23.53;;;5.53;;
21128;SDS011;10722;51.910;8.352;2024-03-23T06:18:08;26.67;;;6.33;;
21128;SDS011;10722;51.910;8.352;2024-03-23T06:20:56;30.03;;;6.87;;
21128;SDS011;10722;51.910;8.352;2024-03-23T06:23:41;28.67;;;6.77;;
21128;SDS011;10722;51.910;8.352;2024-03-23T06:26:26;29.80;;;7.87;;
21128;SDS011;10722;51.910;8.352;2024-03-23T06:29:10;32.83;;;9.23;;
21128;SDS011;10722;51.910;8.352;2024-03-23T06:31:54;32.87;;;9.40;;
21128;SDS011;10722;51.910;8.352;2024-03-23T06:34:41;38.33;;;10.93;;
21128;SDS011;10722;51.910;8.352;2024-03-23T06:37:25;41.70;;;11.93;;
21128;SDS011;10722;51.910;8.352;2024-03-23T06:40:09;41.33;;;14.23;;
21128;SDS011;10722;51.910;8.352;2024-03-23T06:42:54;44.87;;;14.57;;
21128;SDS011;10722;51.910;8.352;2024-03-23T06:45:38;42.63;;;15.13;;
21128;SDS011;10722;51.910;8.352;2024-03-23T06:48:22;36.60;;;15.10;;
21128;SDS011;10722;51.910;8.352;2024-03-23T06:51:06;43.97;;;14.93;;
21128;SDS011;10722;51.910;8.352;2024-03-23T06:53:50;42.23;;;14.93;;
21128;SDS011;10722;51.910;8.352;2024-03-23T06:56:35;45.67;;;14.23;;
21128;SDS011;10722;51.910;8.352;2024-03-23T06:59:19;43.13;;;15.37;;
21128;SDS011;10722;51.910;8.352;2024-03-23T07:02:05;39.40;;;14.73;;
21128;SDS011;10722;51.910;8.352;2024-03-23T07:04:49;43.47;;;15.07;;
21128;SDS011;10722;51.910;8.352;2024-03-23T07:07:33;42.80;;;15.47;;
21128;SDS011;10722;51.910;8.352;2024-03-23T07:10:18;45.27;;;15.20;;
21128;SDS011;10722;51.910;8.352;2024-03-23T07:13:02;45.97;;;16.43;;
21128;SDS011;10722;51.910;8.352;2024-03-23T07:15:52;40.77;;;15.70;;
21128;SDS011;10722;51.910;8.352;2024-03-23T07:18:37;48.43;;;16.67;;
21128;SDS011;10722;51.910;8.352;2024-03-23T07:21:21;53.07;;;17.23;;
21128;SDS011;10722;51.910;8.352;2024-03-23T07:24:05;40.10;;;16.37;;
21128;SDS011;10722;51.910;8.352;2024-03-23T07:26:50;49.17;;;18.00;;
21128;SDS011;10722;51.910;8.352;2024-03-23T07:29:34;44.23;;;16.57;;
21128;SDS011;10722;51.910;8.352;2024-03-23T07:32:18;53.47;;;17.10;;
21128;SDS011;10722;51.910;8.352;2024-03-23T07:35:02;45.63;;;17.37;;
21128;SDS011;10722;51.910;8.352;2024-03-23T07:37:47;44.20;;;17.23;;
21128;SDS011;10722;51.910;8.352;2024-03-23T07:40:31;43.73;;;17.23;;
21128;SDS011;10722;51.910;8.352;2024-03-23T07:43:15;41.20;;;15.23;;
21128;SDS011;10722;51.910;8.352;2024-03-23T07:46:00;64.43;;;26.13;;
21128;SDS011;10722;51.910;8.352;2024-03-23T07:48:44;41.27;;;15.30;;
21128;SDS011;10722;51.910;8.352;2024-03-23T07:51:28;37.80;;;14.50;;
21128;SDS011;10722;51.910;8.352;2024-03-23T07:54:12;38.73;;;14.67;;
21128;SDS011;10722;51.910;8.352;2024-03-23T07:56:56;35.70;;;13.33;;
21128;SDS011;10722;51.910;8.352;2024-03-23T07:59:41;35.10;;;12.83;;
21128;SDS011;10722;51.910;8.352;2024-03-23T08:02:25;37.77;;;12.90;;
21128;SDS011;10722;51.910;8.352;2024-03-23T08:05:09;33.50;;;12.47;;
21128;SDS011;10722;51.910;8.352;2024-03-23T08:07:53;36.63;;;11.47;;
21128;SDS011;10722;51.910;8.352;2024-03-23T08:10:50;37.67;;;11.90;;
21128;SDS011;10722;51.910;8.352;2024-03-23T08:13:36;31.63;;;11.83;;
21128;SDS011;10722;51.910;8.352;2024-03-23T08:16:23;33.57;;;11.90;;
21128;SDS011;10722;51.910;8.352;2024-03-23T08:19:08;38.33;;;12.17;;
21128;SDS011;10722;51.910;8.352;2024-03-23T08:21:51;30.73;;;11.53;;
21128;SDS011;10722;51.910;8.352;2024-03-23T08:24:36;31.10;;;11.57;;
21128;SDS011;10722;51.910;8.352;2024-03-23T08:27:20;33.53;;;11.77;;
21128;SDS011;10722;51.910;8.352;2024-03-23T08:30:05;34.07;;;11.17;;
21128;SDS011;10722;51.910;8.352;2024-03-23T08:32:50;26.27;;;10.40;;
21128;SDS011;10722;51.910;8.352;2024-03-23T08:35:34;31.27;;;10.53;;
21128;SDS011;10722;51.910;8.352;2024-03-23T08:38:19;24.23;;;9.43;;
21128;SDS011;10722;51.910;8.352;2024-03-23T08:41:03;27.87;;;10.43;;
21128;SDS011;10722;51.910;8.352;2024-03-23T08:43:49;30.73;;;10.33;;
21128;SDS011;10722;51.910;8.352;2024-03-23T08:46:33;24.20;;;8.53;;
21128;SDS011;10722;51.910;8.352;2024-03-23T08:49:17;28.90;;;9.63;;
21128;SDS011;10722;51.910;8.352;2024-03-23T08:52:01;22.33;;;8.57;;
21128;SDS011;10722;51.910;8.352;2024-03-23T08:54:46;27.53;;;8.43;;
21128;SDS011;10722;51.910;8.352;2024-03-23T08:57:30;25.17;;;8.80;;
21128;SDS011;10722;51.910;8.352;2024-03-23T09:00:15;26.47;;;7.77;;
21128;SDS011;10722;51.910;8.352;2024-03-23T09:02:59;22.03;;;7.33;;
21128;SDS011;10722;51.910;8.352;2024-03-23T09:05:44;26.03;;;7.70;;
21128;SDS011;10722;51.910;8.352;2024-03-23T09:08:28;22.67;;;6.80;;
21128;SDS011;10722;51.910;8.352;2024-03-23T09:11:13;20.67;;;5.93;;
21128;SDS011;10722;51.910;8.352;2024-03-23T09:13:57;23.40;;;6.93;;
21128;SDS011;10722;51.910;8.352;2024-03-23T09:16:42;27.60;;;8.50;;
21128;SDS011;10722;51.910;8.352;2024-03-23T09:19:28;22.63;;;7.40;;
21128;SDS011;10722;51.910;8.352;2024-03-23T09:22:12;21.27;;;5.90;;
21128;SDS011;10722;51.910;8.352;2024-03-23T09:24:57;24.57;;;5.33;;
21128;SDS011;10722;51.910;8.352;2024-03-23T09:27:41;23.93;;;5.17;;
21128;SDS011;10722;51.910;8.352;2024-03-23T09:30:25;18.30;;;4.87;;
21128;SDS011;10722;51.910;8.352;2024-03-23T09:33:10;18.37;;;4.83;;
21128;SDS011;10722;51.910;8.352;2024-03-23T09:35:57;21.13;;;4.93;;
21128;SDS011;10722;51.910;8.352;2024-03-23T09:38:41;19.43;;;4.67;;
21128;SDS011;10722;51.910;8.352;2024-03-23T09:41:26;16.57;;;4.60;;
21128;SDS011;10722;51.910;8.352;2024-03-23T09:44:10;19.17;;;4.70;;
21128;SDS011;10722;51.910;8.352;2024-03-23T09:46:55;19.90;;;4.70;;
21128;SDS011;10722;51.910;8.352;2024-03-23T09:49:41;15.67;;;4.10;;
21128;SDS011;10722;51.910;8.352;2024-03-23T09:52:25;19.43;;;4.27;;
21128;SDS011;10722;51.910;8.352;2024-03-23T09:55:10;17.57;;;3.97;;
21128;SDS011;10722;51.910;8.352;2024-03-23T09:57:54;17.57;;;4.17;;
21128;SDS011;10722;51.910;8.352;2024-03-23T10:00:39;17.97;;;3.97;;
21128;SDS011;10722;51.910;8.352;2024-03-23T10:03:23;19.47;;;4.53;;
21128;SDS011;10722;51.910;8.352;2024-03-23T10:06:08;18.00;;;5.10;;
21128;SDS011;10722;51.910;8.352;2024-03-23T10:08:52;17.60;;;5.50;;
21128;SDS011;10722;51.910;8.352;2024-03-23T10:11:37;19.13;;;5.07;;
21128;SDS011;10722;51.910;8.352;2024-03-23T10:14:30;17.50;;;5.10;;
21128;SDS011;10722;51.910;8.352;2024-03-23T10:17:15;15.63;;;4.33;;
21128;SDS011;10722;51.910;8.352;2024-03-23T10:20:01;15.93;;;3.70;;
21128;SDS011;10722;51.910;8.352;2024-03-23T10:22:45;13.30;;;3.30;;
21128;SDS011;10722;51.910;8.352;2024-03-23T10:25:30;11.40;;;3.00;;
21128;SDS011;10722;51.910;8.352;2024-03-23T10:28:14;16.17;;;3.63;;
21128;SDS011;10722;51.910;8.352;2024-03-23T10:30:58;15.23;;;4.13;;
21128;SDS011;10722;51.910;8.352;2024-03-23T10:33:55;16.17;;;4.07;;
21128;SDS011;10722;51.910;8.352;2024-03-23T10:36:39;17.70;;;4.23;;
21128;SDS011;10722;51.910;8.352;2024-03-23T10:39:25;17.27;;;4.20;;
21128;SDS011;10722;51.910;8.352;2024-03-23T10:42:10;17.97;;;4.33;;
21128;SDS011;10722;51.910;8.352;2024-03-23T10:44:54;17.57;;;5.13;;
21128;SDS011;10722;51.910;8.352;2024-03-23T10:47:39;19.40;;;4.43;;
21128;SDS011;10722;51.910;8.352;2024-03-23T10:50:23;17.77;;;4.40;;
21128;SDS011;10722;51.910;8.352;2024-03-23T10:53:08;19.60;;;4.93;;
21128;SDS011;10722;51.910;8.352;2024-03-23T10:55:54;17.27;;;5.00;;
21128;SDS011;10722;51.910;8.352;2024-03-23T11:01:25;17.20;;;4.00;;
21128;SDS011;10722;51.910;8.352;2024-03-23T11:04:09;15.50;;;4.20;;
21128;SDS011;10722;51.910;8.352;2024-03-23T11:06:53;13.33;;;3.40;;
21128;SDS011;10722;51.910;8.352;2024-03-23T11:15:06;12.57;;;3.27;;
21128;SDS011;10722;51.910;8.352;2024-03-23T11:18:04;13.93;;;3.50;;
21128;SDS011;10722;51.910;8.352;2024-03-23T11:20:50;17.60;;;4.10;;
21128;SDS011;10722;51.910;8.352;2024-03-23T11:23:34;16.60;;;4.70;;
21128;SDS011;10722;51.910;8.352;2024-03-23T11:26:19;16.70;;;4.63;;
21128;SDS011;10722;51.910;8.352;2024-03-23T11:29:13;16.73;;;4.60;;
21128;SDS011;10722;51.910;8.352;2024-03-23T11:31:58;15.40;;;4.40;;
21128;SDS011;10722;51.910;8.352;2024-03-23T11:34:43;17.23;;;4.83;;
21128;SDS011;10722;51.910;8.352;2024-03-23T11:37:27;15.43;;;4.33;;
21128;SDS011;10722;51.910;8.352;2024-03-23T11:40:16;16.40;;;4.23;;
21128;SDS011;10722;51.910;8.352;2024-03-23T11:43:04;15.97;;;3.87;;
21128;SDS011;10722;51.910;8.352;2024-03-23T11:45:50;20.30;;;4.03;;
21128;SDS011;10722;51.910;8.352;2024-03-23T11:48:35;16.17;;;3.87;;
21128;SDS011;10722;51.910;8.352;2024-03-23T11:51:20;16.40;;;3.73;;
21128;SDS011;10722;51.910;8.352;2024-03-23T11:54:08;11.57;;;3.30;;
21128;SDS011;10722;51.910;8.352;2024-03-23T11:57:03;14.77;;;3.80;;
21128;SDS011;10722;51.910;8.352;2024-03-23T11:59:51;15.37;;;4.00;;
21128;SDS011;10722;51.910;8.352;2024-03-23T12:02:36;14.03;;;3.93;;
21128;SDS011;10722;51.910;8.352;2024-03-23T12:05:20;15.10;;;4.20;;
21128;SDS011;10722;51.910;8.352;2024-03-23T12:11:12;14.57;;;3.93;;
21128;SDS011;10722;51.910;8.352;2024-03-23T12:13:59;8.33;;;2.27;;
21128;SDS011;10722;51.910;8.352;2024-03-23T12:16:43;8.93;;;1.67;;
21128;SDS011;10722;51.910;8.352;2024-03-23T12:19:27;4.37;;;1.30;;
21128;SDS011;10722;51.910;8.352;2024-03-23T12:22:11;3.97;;;1.30;;
21128;SDS011;10722;51.910;8.352;2024-03-23T12:24:55;7.20;;;1.33;;
21128;SDS011;10722;51.910;8.352;2024-03-23T12:27:40;7.07;;;1.63;;
21128;SDS011;10722;51.910;8.352;2024-03-23T12:30:24;5.63;;;1.67;;
21128;SDS011;10722;51.910;8.352;2024-03-23T12:33:11;6.60;;;1.80;;
21128;SDS011;10722;51.910;8.352;2024-03-23T12:35:56;7.33;;;1.90;;
21128;SDS011;10722;51.910;8.352;2024-03-23T12:38:40;10.60;;;2.23;;
21128;SDS011;10722;51.910;8.352;2024-03-23T12:41:24;7.50;;;1.87;;
21128;SDS011;10722;51.910;8.352;2024-03-23T12:44:09;7.60;;;1.87;;
21128;SDS011;10722;51.910;8.352;2024-03-23T12:46:53;10.67;;;2.20;;
21128;SDS011;10722;51.910;8.352;2024-03-23T12:49:38;8.80;;;2.20;;
21128;SDS011;10722;51.910;8.352;2024-03-23T12:52:22;10.43;;;2.20;;
21128;SDS011;10722;51.910;8.352;2024-03-23T12:55:06;28.35;;;12.68;;
21128;SDS011;10722;51.910;8.352;2024-03-23T12:57:51;9.35;;;2.08;;
21128;SDS011;10722;51.910;8.352;2024-03-23T13:00:35;11.20;;;2.20;;
21128;SDS011;10722;51.910;8.352;2024-03-23T13:03:19;9.60;;;2.00;;
21128;SDS011;10722;51.910;8.352;2024-03-23T13:06:03;10.20;;;2.10;;
21128;SDS011;10722;51.910;8.352;2024-03-23T13:08:47;10.60;;;2.10;;
21128;SDS011;10722;51.910;8.352;2024-03-23T13:11:32;11.37;;;2.83;;
21128;SDS011;10722;51.910;8.352;2024-03-23T13:14:16;6.57;;;2.13;;
21128;SDS011;10722;51.910;8.352;2024-03-23T13:17:01;11.10;;;2.70;;
21128;SDS011;10722;51.910;8.352;2024-03-23T13:19:45;13.97;;;2.40;;
21128;SDS011;10722;51.910;8.352;2024-03-23T13:22:30;10.77;;;2.57;;
21128;SDS011;10722;51.910;8.352;2024-03-23T13:25:14;12.93;;;2.80;;
21128;SDS011;10722;51.910;8.352;2024-03-23T13:27:58;9.97;;;2.17;;
21128;SDS011;10722;51.910;8.352;2024-03-23T13:30:49;10.33;;;2.20;;
21128;SDS011;10722;51.910;8.352;2024-03-23T13:33:37;9.03;;;2.00;;
21128;SDS011;10722;51.910;8.352;2024-03-23T13:36:21;6.87;;;1.90;;
21128;SDS011;10722;51.910;8.352;2024-03-23T13:39:05;6.83;;;1.90;;
21128;SDS011;10722;51.910;8.352;2024-03-23T13:41:49;114.47;;;58.70;;
21128;SDS011;10722;51.910;8.352;2024-03-23T13:44:33;4.93;;;1.57;;
21128;SDS011;10722;51.910;8.352;2024-03-23T13:47:18;10.13;;;1.70;;
21128;SDS011;10722;51.910;8.352;2024-03-23T13:50:03;7.33;;;1.60;;
21128;SDS011;10722;51.910;8.352;2024-03-23T13:52:47;8.10;;;1.60;;
21128;SDS011;10722;51.910;8.352;2024-03-23T13:55:32;7.97;;;1.50;;
21128;SDS011;10722;51.910;8.352;2024-03-23T13:58:16;5.17;;;1.60;;
21128;SDS011;10722;51.910;8.352;2024-03-23T14:01:00;9.03;;;1.70;;
21128;SDS011;10722;51.910;8.352;2024-03-23T14:03:44;6.27;;;1.80;;
21128;SDS011;10722;51.910;8.352;2024-03-23T14:06:29;10.37;;;2.33;;
21128;SDS011;10722;51.910;8.352;2024-03-23T14:09:13;8.80;;;2.10;;
21128;SDS011;10722;51.910;8.352;2024-03-23T14:11:58;11.77;;;3.10;;
21128;SDS011;10722;51.910;8.352;2024-03-23T14:14:42;9.03;;;3.03;;
21128;SDS011;10722;51.910;8.352;2024-03-23T14:17:26;8.60;;;2.90;;
21128;SDS011;10722;51.910;8.352;2024-03-23T14:20:11;10.23;;;2.90;;
21128;SDS011;10722;51.910;8.352;2024-03-23T14:22:56;10.80;;;2.70;;
21128;SDS011;10722;51.910;8.352;2024-03-23T14:25:40;8.03;;;2.57;;
21128;SDS011;10722;51.910;8.352;2024-03-23T14:28:24;8.27;;;2.43;;
21128;SDS011;10722;51.910;8.352;2024-03-23T14:31:09;12.63;;;2.70;;
21128;SDS011;10722;51.910;8.352;2024-03-23T14:33:54;12.80;;;3.00;;
21128;SDS011;10722;51.910;8.352;2024-03-23T14:36:38;15.77;;;3.43;;
21128;SDS011;10722;51.910;8.352;2024-03-23T14:39:22;17.33;;;3.30;;
21128;SDS011;10722;51.910;8.352;2024-03-23T14:42:07;13.80;;;3.40;;
21128;SDS011;10722;51.910;8.352;2024-03-23T14:44:51;16.27;;;5.03;;
21128;SDS011;10722;51.910;8.352;2024-03-23T14:47:36;14.70;;;4.10;;
21128;SDS011;10722;51.910;8.352;2024-03-23T14:50:20;15.20;;;3.30;;
21128;SDS011;10722;51.910;8.352;2024-03-23T14:53:05;13.97;;;3.40;;
21128;SDS011;10722;51.910;8.352;2024-03-23T14:55:49;12.43;;;3.53;;
21128;SDS011;10722;51.910;8.352;2024-03-23T14:58:33;11.73;;;3.83;;
21128;SDS011;10722;51.910;8.352;2024-03-23T15:01:18;7.07;;;2.27;;
21128;SDS011;10722;51.910;8.352;2024-03-23T15:04:02;6.87;;;1.80;;
21128;SDS011;10722;51.910;8.352;2024-03-23T15:06:46;5.33;;;1.50;;
21128;SDS011;10722;51.910;8.352;2024-03-23T15:09:31;7.83;;;2.00;;
21128;SDS011;10722;51.910;8.352;2024-03-23T15:12:15;6.80;;;2.17;;
21128;SDS011;10722;51.910;8.352;2024-03-23T15:14:59;10.13;;;2.10;;
21128;SDS011;10722;51.910;8.352;2024-03-23T15:17:43;52.43;;;24.73;;
21128;SDS011;10722;51.910;8.352;2024-03-23T15:20:27;9.03;;;2.17;;
21128;SDS011;10722;51.910;8.352;2024-03-23T15:23:11;7.43;;;1.80;;
21128;SDS011;10722;51.910;8.352;2024-03-23T15:25:55;10.23;;;2.40;;
21128;SDS011;10722;51.910;8.352;2024-03-23T15:28:40;13.93;;;2.17;;
21128;SDS011;10722;51.910;8.352;2024-03-23T15:31:24;9.83;;;2.27;;
21128;SDS011;10722;51.910;8.352;2024-03-23T15:34:09;11.77;;;2.40;;
21128;SDS011;10722;51.910;8.352;2024-03-23T15:36:53;9.77;;;2.30;;
21128;SDS011;10722;51.910;8.352;2024-03-23T15:39:37;12.83;;;2.70;;
21128;SDS011;10722;51.910;8.352;2024-03-23T15:42:22;12.20;;;2.80;;
21128;SDS011;10722;51.910;8.352;2024-03-23T15:45:06;8.73;;;2.00;;
21128;SDS011;10722;51.910;8.352;2024-03-23T15:47:51;10.63;;;2.80;;
21128;SDS011;10722;51.910;8.352;2024-03-23T15:50:35;13.63;;;3.27;;
21128;SDS011;10722;51.910;8.352;2024-03-23T15:53:20;9.67;;;2.90;;
21128;SDS011;10722;51.910;8.352;2024-03-23T15:56:05;11.07;;;2.90;;
21128;SDS011;10722;51.910;8.352;2024-03-23T15:58:49;12.47;;;2.90;;
21128;SDS011;10722;51.910;8.352;2024-03-23T16:01:33;10.57;;;2.80;;
21128;SDS011;10722;51.910;8.352;2024-03-23T16:04:19;9.60;;;3.03;;
21128;SDS011;10722;51.910;8.352;2024-03-23T16:07:03;12.77;;;3.00;;
21128;SDS011;10722;51.910;8.352;2024-03-23T16:09:47;12.03;;;2.73;;
21128;SDS011;10722;51.910;8.352;2024-03-23T16:12:31;9.50;;;2.50;;
21128;SDS011;10722;51.910;8.352;2024-03-23T16:15:16;13.70;;;2.97;;
21128;SDS011;10722;51.910;8.352;2024-03-23T16:18:00;13.47;;;2.90;;
21128;SDS011;10722;51.910;8.352;2024-03-23T16:23:42;12.07;;;2.70;;
21128;SDS011;10722;51.910;8.352;2024-03-23T16:26:26;10.87;;;2.40;;
21128;SDS011;10722;51.910;8.352;2024-03-23T16:29:10;8.50;;;2.20;;
21128;SDS011;10722;51.910;8.352;2024-03-23T16:31:55;8.57;;;2.10;;
21128;SDS011;10722;51.910;8.352;2024-03-23T16:34:38;12.13;;;2.23;;
21128;SDS011;10722;51.910;8.352;2024-03-23T16:37:22;8.10;;;1.50;;
21128;SDS011;10722;51.910;8.352;2024-03-23T16:40:07;7.17;;;1.60;;
21128;SDS011;10722;51.910;8.352;2024-03-23T16:42:52;8.10;;;1.60;;
21128;SDS011;10722;51.910;8.352;2024-03-23T16:45:36;5.67;;;1.17;;
21128;SDS011;10722;51.910;8.352;2024-03-23T16:48:21;7.87;;;1.73;;
21128;SDS011;10722;51.910;8.352;2024-03-23T16:51:06;8.63;;;1.50;;
21128;SDS011;10722;51.910;8.352;2024-03-23T16:53:51;8.33;;;1.67;;
21128;SDS011;10722;51.910;8.352;2024-03-23T16:56:35;8.00;;;1.70;;
21128;SDS011;10722;51.910;8.352;2024-03-23T16:59:19;9.30;;;2.07;;
21128;SDS011;10722;51.910;8.352;2024-03-23T17:02:03;12.53;;;2.10;;
21128;SDS011;10722;51.910;8.352;2024-03-23T17:04:47;7.90;;;2.00;;
21128;SDS011;10722;51.910;8.352;2024-03-23T17:07:31;11.47;;;1.90;;
21128;SDS011;10722;51.910;8.352;2024-03-23T17:10:15;13.30;;;2.00;;
21128;SDS011;10722;51.910;8.352;2024-03-23T17:13:00;7.47;;;1.70;;
21128;SDS011;10722;51.910;8.352;2024-03-23T17:15:45;11.33;;;2.40;;
21128;SDS011;10722;51.910;8.352;2024-03-23T17:18:30;10.13;;;2.13;;
21128;SDS011;10722;51.910;8.352;2024-03-23T17:21:15;7.37;;;1.80;;
21128;SDS011;10722;51.910;8.352;2024-03-23T17:23:59;13.17;;;2.30;;
21128;SDS011;10722;51.910;8.352;2024-03-23T17:26:43;9.17;;;2.30;;